createdAt,value
2023-08-13T00:01:01.746Z,6.03
2023-08-13T00:03:28.272Z,6.45
2023-08-13T00:05:54.879Z,6.00
2023-08-13T00:08:21.353Z,6.38
2023-08-13T00:10:49.244Z,6.40
2023-08-13T00:13:15.834Z,6.15
2023-08-13T00:15:42.314Z,6.18
2023-08-13T00:18:08.861Z,6.30
2023-08-13T00:20:35.748Z,6.03
2023-08-13T00:23:02.287Z,6.28
2023-08-13T00:25:28.758Z,5.90
2023-08-13T00:27:56.559Z,5.82
2023-08-13T00:30:23.036Z,5.95
2023-08-13T00:32:49.567Z,5.93
2023-08-13T00:35:16.040Z,5.90
2023-08-13T00:37:42.540Z,5.85
2023-08-13T00:40:11.694Z,5.90
2023-08-13T00:42:38.199Z,6.03
2023-08-13T00:45:06.920Z,5.80
2023-08-13T00:47:33.556Z,5.30
2023-08-13T00:50:00.080Z,5.63
2023-08-13T00:52:26.570Z,5.75
2023-08-13T00:54:53.051Z,5.50
2023-08-13T00:57:19.512Z,5.60
2023-08-13T00:59:46.475Z,5.45
2023-08-13T01:02:14.598Z,5.78
2023-08-13T01:04:41.181Z,6.00
2023-08-13T01:07:11.889Z,6.05
2023-08-13T01:09:42.963Z,5.88
2023-08-13T01:12:15.266Z,5.43
2023-08-13T01:14:44.288Z,5.68
2023-08-13T01:17:12.051Z,4.68
2023-08-13T01:19:39.875Z,5.20
2023-08-13T01:22:06.432Z,5.85
2023-08-13T01:24:34.254Z,5.35
2023-08-13T01:27:04.472Z,5.60
2023-08-13T01:29:33.905Z,5.82
2023-08-13T01:32:01.552Z,6.55
2023-08-13T01:34:28.409Z,5.97
2023-08-13T01:36:55.345Z,5.70
2023-08-13T01:39:22.035Z,6.20
2023-08-13T01:41:53.088Z,5.55
2023-08-13T01:44:19.605Z,5.72
2023-08-13T01:46:46.096Z,5.68
2023-08-13T01:49:12.672Z,5.80
2023-08-13T01:51:39.132Z,5.88
2023-08-13T01:54:05.719Z,6.10
2023-08-13T01:56:32.143Z,6.90
2023-08-13T01:58:59.970Z,6.63
2023-08-13T02:01:26.524Z,6.45
2023-08-13T02:03:52.975Z,7.38
2023-08-13T02:06:19.468Z,6.97
2023-08-13T02:08:45.941Z,6.45
2023-08-13T02:11:12.449Z,6.43
2023-08-13T02:13:38.895Z,6.30
2023-08-13T02:16:06.846Z,5.97
2023-08-13T02:18:33.447Z,6.15
2023-08-13T02:21:00.031Z,6.10
2023-08-13T02:23:26.518Z,6.40
2023-08-13T02:25:53.096Z,5.88
2023-08-13T02:28:19.561Z,6.15
2023-08-13T02:30:46.053Z,5.82
2023-08-13T02:33:14.114Z,6.20
2023-08-13T02:35:40.526Z,6.63
2023-08-13T02:38:07.009Z,6.03
2023-08-13T02:40:33.475Z,6.18
2023-08-13T02:42:59.940Z,6.05
2023-08-13T02:45:26.394Z,5.63
2023-08-13T02:47:52.939Z,5.90
2023-08-13T02:50:20.842Z,5.60
2023-08-13T02:52:47.360Z,5.55
2023-08-13T02:55:13.849Z,5.68
2023-08-13T02:57:46.802Z,5.63
2023-08-13T03:00:23.402Z,6.28
2023-08-13T03:02:49.919Z,5.68
2023-08-13T03:05:16.569Z,6.82
2023-08-13T03:07:44.429Z,6.03
2023-08-13T03:10:10.896Z,6.35
2023-08-13T03:12:37.366Z,6.43
2023-08-13T03:15:04.064Z,5.65
2023-08-13T03:17:30.715Z,6.03
2023-08-13T03:19:57.261Z,5.80
2023-08-13T03:22:23.776Z,6.22
2023-08-13T03:24:51.630Z,5.97
2023-08-13T03:27:18.077Z,6.05
2023-08-13T03:29:44.502Z,5.95
2023-08-13T03:32:10.987Z,5.85
2023-08-13T03:34:37.398Z,6.57
2023-08-13T03:37:03.887Z,5.05
2023-08-13T03:39:30.313Z,5.50
2023-08-13T03:41:58.145Z,5.55
2023-08-13T03:44:24.856Z,6.45
2023-08-13T03:46:51.312Z,6.80
2023-08-13T03:49:17.765Z,6.35
2023-08-13T03:51:44.190Z,6.13
2023-08-13T03:54:10.686Z,6.65
2023-08-13T03:56:37.238Z,6.18
2023-08-13T03:59:05.172Z,7.25
2023-08-13T04:01:31.747Z,6.50
2023-08-13T04:03:59.721Z,9.40
2023-08-13T04:06:26.427Z,8.57
2023-08-13T04:08:52.858Z,8.88
2023-08-13T04:11:19.362Z,8.35
2023-08-13T04:13:45.864Z,7.28
2023-08-13T04:16:13.666Z,7.90
2023-08-13T04:18:40.157Z,8.73
2023-08-13T04:21:06.586Z,8.82
2023-08-13T04:23:33.151Z,8.23
2023-08-13T04:25:59.638Z,6.80
2023-08-13T04:28:26.088Z,6.88
2023-08-13T04:30:52.535Z,6.32
2023-08-13T04:33:22.266Z,6.20
2023-08-13T04:35:52.458Z,6.65
2023-08-13T04:38:18.922Z,6.22
2023-08-13T04:40:46.950Z,6.25
2023-08-13T04:43:13.350Z,6.72
2023-08-13T04:45:39.897Z,6.88
2023-08-13T04:48:06.548Z,6.20
2023-08-13T04:50:34.631Z,5.85
2023-08-13T04:53:01.083Z,6.40
2023-08-13T04:55:27.590Z,5.93
2023-08-13T04:57:54.073Z,5.82
2023-08-13T05:00:20.498Z,6.22
2023-08-13T05:02:47.060Z,6.05
2023-08-13T05:05:13.605Z,6.43
2023-08-13T05:07:41.436Z,6.43
2023-08-13T05:10:08.497Z,6.10
2023-08-13T05:12:34.975Z,6.53
2023-08-13T05:15:01.485Z,6.82
2023-08-13T05:17:27.949Z,6.68
2023-08-13T05:19:54.423Z,6.53
2023-08-13T05:22:21.100Z,6.85
2023-08-13T05:24:48.946Z,7.10
2023-08-13T05:27:15.464Z,6.95
2023-08-13T05:29:42.172Z,7.07
2023-08-13T05:32:08.645Z,7.43
2023-08-13T05:34:35.159Z,7.88
2023-08-13T05:37:01.597Z,7.55
2023-08-13T05:39:28.107Z,7.47
2023-08-13T05:41:55.923Z,7.60
2023-08-13T05:44:22.395Z,8.15
2023-08-13T05:46:48.918Z,7.82
2023-08-13T05:49:15.408Z,7.30
2023-08-13T05:51:41.969Z,7.10
2023-08-13T05:54:08.374Z,7.53
2023-08-13T05:56:34.803Z,7.05
2023-08-13T05:59:02.929Z,7.38
2023-08-13T06:01:29.382Z,6.70
2023-08-13T06:03:56.279Z,5.82
2023-08-13T06:06:22.931Z,6.85
2023-08-13T06:08:49.391Z,7.47
2023-08-13T06:11:15.907Z,7.82
2023-08-13T06:13:42.360Z,7.60
2023-08-13T06:16:10.307Z,8.20
2023-08-13T06:18:36.839Z,7.60
2023-08-13T06:21:03.415Z,7.70
2023-08-13T06:23:29.857Z,7.40
2023-08-13T06:25:56.521Z,7.15
2023-08-13T06:28:23.015Z,7.47
2023-08-13T06:30:50.784Z,7.95
2023-08-13T06:33:18.574Z,7.75
2023-08-13T06:35:45.537Z,8.43
2023-08-13T06:38:12.000Z,7.97
2023-08-13T06:40:40.682Z,7.88
2023-08-13T06:43:07.159Z,8.30
2023-08-13T06:45:33.781Z,8.25
2023-08-13T06:48:00.294Z,7.57
2023-08-13T06:50:28.226Z,8.60
2023-08-13T06:52:54.820Z,8.30
2023-08-13T06:55:21.296Z,7.78
2023-08-13T06:57:47.904Z,8.80
2023-08-13T07:00:14.551Z,7.85
2023-08-13T07:02:41.042Z,7.43
2023-08-13T07:05:09.595Z,7.70
2023-08-13T07:07:37.550Z,8.15
2023-08-13T07:10:04.166Z,7.97
2023-08-13T07:12:30.622Z,7.80
2023-08-13T07:14:57.104Z,8.02
2023-08-13T07:17:23.577Z,7.65
2023-08-13T07:19:50.226Z,8.10
2023-08-13T07:22:16.993Z,7.85
2023-08-13T07:24:45.095Z,7.85
2023-08-13T07:27:11.836Z,8.65
2023-08-13T07:29:38.353Z,8.20
2023-08-13T07:32:06.160Z,7.45
2023-08-13T07:34:32.970Z,7.70
2023-08-13T07:36:59.537Z,7.47
2023-08-13T07:39:26.048Z,8.00
2023-08-13T07:41:53.935Z,8.43
2023-08-13T07:44:20.881Z,7.70
2023-08-13T07:46:47.673Z,7.20
2023-08-13T07:49:14.577Z,7.07
2023-08-13T07:51:41.034Z,6.30
2023-08-13T07:54:07.556Z,6.63
2023-08-13T07:56:34.040Z,6.90
2023-08-13T07:59:01.960Z,7.45
2023-08-13T08:01:28.666Z,7.13
2023-08-13T08:03:55.147Z,7.05
2023-08-13T08:06:21.658Z,7.40
2023-08-13T08:08:48.159Z,6.95
2023-08-13T08:11:14.711Z,7.00
2023-08-13T08:13:41.135Z,6.95
2023-08-13T08:16:09.560Z,7.43
2023-08-13T08:18:36.051Z,6.20
2023-08-13T08:21:02.541Z,6.22
2023-08-13T08:23:29.114Z,6.72
2023-08-13T08:25:56.791Z,6.97
2023-08-13T08:28:23.340Z,6.85
2023-08-13T08:30:51.065Z,6.25
2023-08-13T08:33:18.945Z,6.80
2023-08-13T08:35:45.601Z,6.75
2023-08-13T08:38:13.797Z,6.65
2023-08-13T08:40:42.919Z,6.32
2023-08-13T08:43:11.152Z,7.32
2023-08-13T08:45:46.106Z,14.40
2023-08-13T08:51:48.283Z,10.75
2023-08-13T08:57:56.854Z,6.90
2023-08-13T09:00:55.919Z,7.25
2023-08-13T09:13:49.930Z,6.70
2023-08-13T09:16:29.128Z,6.10
2023-08-13T09:27:07.380Z,6.63
2023-08-13T09:27:53.475Z,6.50
2023-08-13T09:33:42.803Z,6.57
2023-08-13T09:36:55.932Z,6.65
2023-08-13T09:39:47.414Z,7.30
2023-08-13T09:45:32.484Z,6.57
2023-08-13T09:48:48.476Z,6.90
2023-08-13T09:51:44.485Z,6.57
2023-08-13T09:54:32.951Z,7.18
2023-08-13T10:11:16.956Z,7.38
2023-08-13T10:13:54.629Z,7.25
2023-08-13T10:38:47.543Z,7.70
2023-08-13T10:41:42.480Z,7.55
2023-08-13T10:48:37.886Z,8.80
2023-08-13T10:50:48.620Z,9.68
2023-08-13T10:53:34.589Z,10.15
2023-08-13T10:56:07.173Z,10.75
2023-08-13T10:58:46.404Z,9.20
2023-08-13T11:04:19.631Z,10.10
2023-08-13T11:07:02.144Z,9.77
2023-08-13T11:19:27.980Z,9.40
2023-08-13T11:28:45.214Z,9.55
2023-08-13T11:34:47.435Z,9.68
2023-08-13T11:37:30.506Z,9.30
2023-08-13T11:40:02.202Z,9.38
2023-08-13T11:42:45.224Z,8.90
2023-08-13T12:07:39.621Z,8.68
2023-08-13T12:10:14.027Z,8.07
2023-08-13T12:25:00.707Z,8.27
2023-08-13T12:27:46.980Z,7.72
2023-08-13T12:30:18.747Z,8.05
2023-08-13T12:33:12.243Z,7.35
2023-08-13T12:47:54.415Z,7.78
2023-08-13T12:50:33.074Z,7.53
2023-08-13T12:53:40.694Z,7.57
2023-08-13T12:57:42.649Z,6.78
2023-08-13T12:59:19.435Z,7.47
2023-08-13T13:04:40.554Z,6.25
2023-08-13T13:07:15.820Z,7.13
2023-08-13T13:09:47.458Z,7.22
2023-08-13T13:12:15.037Z,6.60
2023-08-13T13:14:46.731Z,6.82
2023-08-13T13:17:15.466Z,6.50
2023-08-13T13:19:55.728Z,6.60
2023-08-13T13:23:01.485Z,7.25
2023-08-13T13:25:28.013Z,6.95
2023-08-13T13:27:57.128Z,6.65
2023-08-13T13:33:01.820Z,6.50
2023-08-13T13:35:29.840Z,6.70
2023-08-13T13:37:56.669Z,6.75
2023-08-13T13:40:23.475Z,6.97
2023-08-13T13:42:51.987Z,6.68
2023-08-13T13:45:25.321Z,6.50
2023-08-13T13:48:10.324Z,6.93
2023-08-13T13:56:48.481Z,7.32
2023-08-13T13:59:13.452Z,6.75
2023-08-13T14:01:43.202Z,7.57
2023-08-13T14:04:12.239Z,7.45
2023-08-13T16:11:46.464Z,9.15
2023-08-13T17:32:00.697Z,11.75
2023-08-13T17:41:06.647Z,10.45
2023-08-13T17:46:41.003Z,11.88
2023-08-13T17:49:08.027Z,12.20
2023-08-13T17:51:41.566Z,13.65
2023-08-13T17:54:14.616Z,12.20
2023-08-13T17:57:44.460Z,11.73
2023-08-13T18:00:06.587Z,11.15
2023-08-13T18:09:13.662Z,11.32
2023-08-13T18:15:02.289Z,10.30
2023-08-13T18:17:31.454Z,11.05
2023-08-13T18:22:26.747Z,9.60
2023-08-13T18:24:53.225Z,11.73
2023-08-13T18:27:19.945Z,12.85
2023-08-13T18:29:46.671Z,12.57
2023-08-13T18:32:13.195Z,11.65
2023-08-13T18:34:40.983Z,12.50
2023-08-13T18:37:07.427Z,12.65
2023-08-13T18:39:34.553Z,12.68
2023-08-13T18:42:01.036Z,13.95
2023-08-13T18:44:27.535Z,14.10
2023-08-13T18:46:54.048Z,14.15
2023-08-13T18:49:20.914Z,16.25
2023-08-13T18:51:48.822Z,15.60
2023-08-13T18:54:15.261Z,15.40
2023-08-13T18:56:41.766Z,14.75
2023-08-13T18:59:08.291Z,14.82
2023-08-13T19:01:34.785Z,15.45
2023-08-13T19:04:01.220Z,14.98
2023-08-13T19:06:27.690Z,16.27
2023-08-13T19:08:55.581Z,16.98
2023-08-13T19:11:22.045Z,16.70
2023-08-13T19:13:48.515Z,17.20
2023-08-13T19:16:15.007Z,17.40
2023-08-13T19:18:41.529Z,17.20
2023-08-13T19:21:07.973Z,16.73
2023-08-13T19:23:35.226Z,17.58
2023-08-13T19:26:03.737Z,17.45
2023-08-13T19:28:30.198Z,18.10
2023-08-13T19:30:56.747Z,19.70
2023-08-13T19:33:23.197Z,19.63
2023-08-13T19:35:49.902Z,19.25
2023-08-13T19:38:18.778Z,18.00
2023-08-13T19:40:45.252Z,16.52
2023-08-13T19:43:14.195Z,19.02
2023-08-13T19:45:42.418Z,21.05
2023-08-13T19:48:08.935Z,21.53
2023-08-13T19:50:38.894Z,21.75
2023-08-13T19:53:06.383Z,22.40
2023-08-13T19:55:33.493Z,23.40
2023-08-13T19:57:59.949Z,23.65
2023-08-13T20:00:27.772Z,25.08
2023-08-13T20:02:54.308Z,21.85
2023-08-13T20:05:20.994Z,20.95
2023-08-13T20:07:47.484Z,21.40
2023-08-13T20:10:13.955Z,19.58
2023-08-13T20:12:40.404Z,19.00
2023-08-13T20:15:07.601Z,18.30
2023-08-13T20:17:35.664Z,19.98
2023-08-13T20:20:02.414Z,17.33
2023-08-13T20:22:28.919Z,16.45
2023-08-13T20:24:55.357Z,15.57
2023-08-13T20:27:21.829Z,16.08
2023-08-13T20:29:48.587Z,17.77
2023-08-13T20:32:16.731Z,19.80
2023-08-13T20:34:45.106Z,18.23
2023-08-13T20:37:12.613Z,16.75
2023-08-13T20:39:42.000Z,17.10
2023-08-13T20:42:13.396Z,17.65
2023-08-13T20:44:50.643Z,17.17
2023-08-13T20:47:23.617Z,17.20
2023-08-13T20:49:51.849Z,17.67
2023-08-13T20:52:19.239Z,17.23
2023-08-13T20:54:48.777Z,16.70
2023-08-13T20:57:15.350Z,17.85
2023-08-13T20:59:48.025Z,18.33
2023-08-13T21:02:21.506Z,20.33
2023-08-13T21:04:48.988Z,20.05
2023-08-13T21:07:16.820Z,18.50
2023-08-13T21:09:43.305Z,18.25
2023-08-13T21:12:09.857Z,20.25
2023-08-13T21:14:36.421Z,20.67
2023-08-13T21:17:02.969Z,20.15
2023-08-13T21:19:31.066Z,18.55
2023-08-13T21:21:57.813Z,18.25
2023-08-13T21:24:27.905Z,17.85
2023-08-13T21:26:55.085Z,17.83
2023-08-13T21:29:21.752Z,17.85
2023-08-13T21:31:49.429Z,17.60
2023-08-13T21:34:16.272Z,18.45
2023-08-13T21:36:42.837Z,17.35
2023-08-13T21:39:09.822Z,18.70
2023-08-13T21:41:45.698Z,19.20
2023-08-13T21:44:12.219Z,17.75
2023-08-13T21:46:39.006Z,18.23
2023-08-13T21:49:05.648Z,18.83
2023-08-13T21:51:32.570Z,18.60
2023-08-13T21:53:59.305Z,20.00
2023-08-13T21:56:25.876Z,20.30
2023-08-13T21:58:53.702Z,19.15
2023-08-13T22:01:20.170Z,21.65
2023-08-13T22:03:46.764Z,20.83
2023-08-13T22:06:13.345Z,19.80
2023-08-13T22:08:39.808Z,19.15
2023-08-13T22:11:06.238Z,20.27
2023-08-13T22:13:32.744Z,20.33
2023-08-13T22:16:00.649Z,21.38
2023-08-13T22:18:27.266Z,22.77
2023-08-13T22:20:53.760Z,24.83
2023-08-13T22:23:20.180Z,23.88
2023-08-13T22:25:46.689Z,23.33
2023-08-13T22:28:13.099Z,22.10
2023-08-13T22:30:39.708Z,21.83
2023-08-13T22:33:07.843Z,20.50
2023-08-13T22:35:34.425Z,22.05
2023-08-13T22:38:00.901Z,21.23
2023-08-13T22:40:27.345Z,21.98
2023-08-13T22:42:53.757Z,22.23
2023-08-13T22:45:20.235Z,23.15
2023-08-13T22:47:46.696Z,22.08
2023-08-13T22:50:14.697Z,21.42
2023-08-13T22:52:41.395Z,21.35
2023-08-13T22:55:08.451Z,20.63
2023-08-13T22:57:34.898Z,21.52
2023-08-13T23:00:01.382Z,21.70
2023-08-13T23:02:27.861Z,23.02
2023-08-13T23:04:54.301Z,22.65
2023-08-13T23:07:22.110Z,22.48
2023-08-13T23:09:48.811Z,22.77
2023-08-13T23:12:15.680Z,23.80
2023-08-13T23:14:42.646Z,23.38
2023-08-13T23:17:09.411Z,21.05
2023-08-13T23:19:36.072Z,21.08
2023-08-13T23:22:02.639Z,21.02
2023-08-13T23:24:32.910Z,21.33
2023-08-13T23:26:59.735Z,21.33
2023-08-13T23:29:26.148Z,20.65
2023-08-13T23:31:52.755Z,21.48
2023-08-13T23:34:19.309Z,21.83
2023-08-13T23:36:45.867Z,21.50
2023-08-13T23:39:12.355Z,22.67
2023-08-13T23:41:41.074Z,19.92
2023-08-13T23:44:07.989Z,23.20
2023-08-13T23:46:34.456Z,20.02
2023-08-13T23:49:01.093Z,22.48
2023-08-13T23:51:27.559Z,20.67
2023-08-13T23:53:53.987Z,21.35
2023-08-13T23:56:20.472Z,20.70
2023-08-13T23:58:48.318Z,20.02
